createdAt,value
2023-01-05T00:01:41.426Z,0.67
2023-01-05T00:04:10.012Z,1.67
2023-01-05T00:06:37.864Z,3.30
2023-01-05T00:09:07.419Z,6.30
2023-01-05T00:11:53.548Z,2.90
2023-01-05T00:14:42.436Z,2.80
2023-01-05T00:17:35.298Z,2.83
2023-01-05T00:20:27.086Z,1.23
2023-01-05T00:22:54.932Z,1.27
2023-01-05T00:25:25.455Z,1.07
2023-01-05T00:27:54.042Z,1.67
2023-01-05T00:30:25.574Z,3.03
2023-01-05T00:32:53.514Z,3.93
2023-01-05T00:35:21.964Z,5.30
2023-01-05T00:37:50.376Z,4.50
2023-01-05T00:40:20.913Z,1.50
2023-01-05T00:42:49.016Z,0.60
2023-01-05T00:45:18.222Z,1.17
2023-01-05T00:47:45.798Z,1.50
2023-01-05T00:50:16.850Z,0.40
2023-01-05T00:52:45.035Z,0.37
2023-01-05T00:55:13.125Z,1.13
2023-01-05T00:57:40.811Z,0.30
2023-01-05T01:00:13.200Z,2.50
2023-01-05T01:02:40.818Z,0.40
2023-01-05T01:05:08.729Z,2.73
2023-01-05T01:07:38.215Z,3.00
2023-01-05T01:10:06.821Z,2.60
2023-01-05T01:12:34.362Z,3.17
2023-01-05T01:15:02.167Z,2.87
2023-01-05T01:17:32.229Z,0.90
2023-01-05T01:19:59.896Z,2.40
2023-01-05T01:22:27.566Z,3.50
2023-01-05T01:24:55.162Z,3.70
2023-01-05T01:27:22.784Z,2.83
2023-01-05T01:29:50.437Z,4.13
2023-01-05T01:32:18.105Z,3.13
2023-01-05T01:34:45.773Z,2.37
2023-01-05T01:37:13.588Z,3.53
2023-01-05T01:39:41.347Z,4.33
2023-01-05T01:42:16.142Z,3.13
2023-01-05T01:44:52.509Z,5.80
2023-01-05T01:47:42.115Z,6.10
2023-01-05T01:50:18.606Z,5.63
2023-01-05T01:52:50.165Z,5.23
2023-01-05T01:55:22.013Z,4.83
2023-01-05T01:57:51.040Z,6.10
2023-01-05T02:00:19.615Z,6.57
2023-01-05T02:02:51.742Z,6.23
2023-01-05T02:05:21.789Z,6.60
2023-01-05T02:07:49.680Z,4.00
2023-01-05T02:10:22.436Z,6.83
2023-01-05T02:12:53.036Z,9.87
2023-01-05T02:15:42.411Z,5.67
2023-01-05T02:18:34.997Z,7.17
2023-01-05T02:21:16.867Z,6.63
2023-01-05T02:24:12.795Z,5.67
2023-01-05T02:26:59.042Z,8.87
2023-01-05T02:29:45.435Z,8.37
2023-01-05T02:32:34.325Z,5.00
2023-01-05T02:35:30.237Z,7.53
2023-01-05T02:38:03.860Z,10.77
2023-01-05T02:40:42.125Z,6.53
2023-01-05T02:43:13.945Z,8.13
2023-01-05T02:45:41.655Z,6.77
2023-01-05T02:48:12.732Z,9.03
2023-01-05T02:50:46.036Z,11.30
2023-01-05T02:53:21.843Z,7.90
2023-01-05T02:55:55.079Z,9.60
2023-01-05T02:58:31.587Z,9.80
2023-01-05T03:01:18.985Z,8.83
2023-01-05T03:03:55.044Z,10.73
2023-01-05T03:06:33.581Z,11.70
2023-01-05T03:09:05.019Z,10.13
2023-01-05T03:12:02.372Z,10.07
2023-01-05T03:14:43.137Z,10.33
2023-01-05T03:17:14.831Z,8.50
2023-01-05T03:19:45.227Z,9.73
2023-01-05T03:22:34.832Z,12.43
2023-01-05T03:25:21.294Z,9.47
2023-01-05T03:28:08.104Z,12.37
2023-01-05T03:31:13.461Z,12.13
2023-01-05T03:34:07.593Z,12.53
2023-01-05T03:36:45.863Z,10.97
2023-01-05T03:39:15.494Z,8.53
2023-01-05T03:41:43.378Z,9.60
2023-01-05T03:44:11.129Z,10.03
2023-01-05T03:46:40.264Z,10.77
2023-01-05T03:49:08.074Z,12.33
2023-01-05T03:51:41.440Z,12.53
2023-01-05T03:54:09.812Z,7.23
2023-01-05T03:56:38.300Z,10.10
2023-01-05T03:59:05.968Z,11.07
2023-01-05T04:01:33.620Z,14.97
2023-01-05T04:04:01.437Z,9.90
2023-01-05T04:06:31.985Z,11.13
2023-01-05T04:08:59.701Z,14.10
2023-01-05T04:11:27.388Z,10.47
2023-01-05T04:13:55.930Z,13.53
2023-01-05T04:16:24.104Z,12.87
2023-01-05T04:18:51.834Z,10.20
2023-01-05T04:21:19.458Z,12.30
2023-01-05T04:23:50.033Z,11.37
2023-01-05T04:26:20.706Z,9.27
2023-01-05T04:28:49.318Z,12.73
2023-01-05T04:31:16.994Z,7.37
2023-01-05T04:33:47.487Z,13.30
2023-01-05T04:36:15.148Z,11.97
2023-01-05T04:38:42.749Z,9.83
2023-01-05T04:41:11.186Z,11.07
2023-01-05T04:43:39.766Z,13.03
2023-01-05T04:46:07.562Z,10.97
2023-01-05T04:48:35.324Z,15.43
2023-01-05T04:51:03.081Z,8.37
2023-01-05T04:53:30.859Z,9.07
2023-01-05T04:55:58.510Z,14.70
2023-01-05T04:58:26.116Z,11.57
2023-01-05T05:00:53.721Z,11.33
2023-01-05T05:03:21.585Z,7.33
2023-01-05T05:05:52.093Z,7.50
2023-01-05T05:08:22.952Z,12.67
2023-01-05T05:10:52.801Z,8.10
2023-01-05T05:13:20.464Z,11.20
2023-01-05T05:15:51.135Z,10.33
2023-01-05T05:18:18.869Z,12.90
2023-01-05T05:20:50.450Z,11.20
2023-01-05T05:23:18.620Z,11.57
2023-01-05T05:25:50.285Z,10.43
2023-01-05T05:28:19.905Z,10.47
2023-01-05T05:30:49.918Z,7.03
2023-01-05T05:33:17.601Z,11.67
2023-01-05T05:35:45.196Z,10.97
2023-01-05T05:38:12.836Z,10.37
2023-01-05T05:40:43.294Z,12.83
2023-01-05T05:43:10.941Z,14.37
2023-01-05T05:45:38.643Z,11.57
2023-01-05T05:48:06.377Z,13.27
2023-01-05T05:50:34.005Z,10.33
2023-01-05T05:53:01.625Z,12.20
2023-01-05T05:55:29.240Z,11.47
2023-01-05T05:57:56.893Z,11.20
2023-01-05T06:00:24.645Z,11.17
2023-01-05T06:02:55.470Z,11.87
2023-01-05T06:05:25.752Z,11.20
2023-01-05T06:07:56.408Z,10.50
2023-01-05T06:10:24.527Z,10.70
2023-01-05T06:12:56.557Z,8.93
2023-01-05T06:15:26.420Z,8.90
2023-01-05T06:17:56.848Z,8.23
2023-01-05T06:20:24.510Z,6.37
2023-01-05T06:22:52.210Z,10.37
2023-01-05T06:25:19.864Z,7.43
2023-01-05T06:27:47.559Z,9.73
2023-01-05T06:30:15.295Z,9.60
2023-01-05T06:32:42.923Z,9.90
2023-01-05T06:35:10.907Z,7.50
2023-01-05T06:37:38.590Z,9.67
2023-01-05T06:40:07.093Z,7.70
2023-01-05T06:42:34.693Z,10.27
2023-01-05T06:45:02.286Z,8.37
2023-01-05T06:47:33.299Z,8.30
2023-01-05T06:50:00.895Z,10.27
2023-01-05T06:52:29.038Z,7.83
2023-01-05T06:56:15.558Z,12.47
2023-01-05T06:58:43.152Z,8.27
2023-01-05T07:01:13.130Z,11.33
2023-01-05T07:03:40.955Z,10.33
2023-01-05T07:06:14.434Z,8.43
2023-01-05T07:08:43.135Z,10.37
2023-01-05T07:11:10.831Z,11.67
2023-01-05T07:13:38.504Z,10.00
2023-01-05T07:16:06.538Z,9.97
2023-01-05T07:18:34.465Z,8.00
2023-01-05T07:21:02.076Z,6.33
2023-01-05T07:23:30.028Z,7.13
2023-01-05T07:26:01.416Z,5.57
2023-01-05T07:28:29.723Z,5.70
2023-01-05T07:31:00.118Z,5.30
2023-01-05T07:33:27.996Z,8.57
2023-01-05T07:35:55.624Z,8.67
2023-01-05T07:38:23.317Z,8.57
2023-01-05T07:40:50.930Z,6.97
2023-01-05T07:43:19.623Z,8.53
2023-01-05T07:45:48.332Z,6.23
2023-01-05T07:48:21.847Z,5.33
2023-01-05T07:50:53.069Z,11.03
2023-01-05T07:53:21.757Z,9.63
2023-01-05T07:56:01.696Z,7.77
2023-01-05T07:58:29.800Z,9.67
2023-01-05T08:00:57.630Z,8.03
2023-01-05T08:03:27.915Z,9.93
2023-01-05T08:05:55.608Z,7.97
2023-01-05T08:08:24.671Z,8.20
2023-01-05T08:10:53.136Z,7.33
2023-01-05T08:13:41.654Z,7.17
2023-01-05T08:16:09.388Z,13.27
2023-01-05T08:18:37.036Z,10.33
2023-01-05T08:21:05.914Z,10.37
2023-01-05T08:23:33.552Z,10.67
2023-01-05T08:26:11.842Z,9.67
2023-01-05T08:28:40.532Z,12.07
2023-01-05T08:31:12.589Z,9.43
2023-01-05T08:33:40.436Z,9.23
2023-01-05T08:36:19.830Z,13.57
2023-01-05T08:38:54.260Z,12.50
2023-01-05T08:41:24.598Z,12.33
2023-01-05T08:43:54.090Z,8.50
2023-01-05T08:46:23.738Z,8.47
2023-01-05T08:48:53.363Z,9.83
2023-01-05T08:51:22.004Z,10.13
2023-01-05T08:53:49.761Z,11.70
2023-01-05T08:56:17.827Z,8.93
2023-01-05T08:58:45.634Z,7.63
2023-01-05T09:01:18.138Z,15.00
2023-01-05T09:03:46.052Z,7.33
2023-01-05T09:06:15.021Z,10.53
2023-01-05T09:08:43.834Z,6.40
2023-01-05T09:11:13.222Z,10.27
2023-01-05T09:13:41.949Z,11.50
2023-01-05T09:16:12.841Z,11.93
2023-01-05T09:18:42.054Z,13.53
2023-01-05T09:21:11.049Z,9.77
2023-01-05T09:23:39.323Z,7.83
2023-01-05T09:26:21.433Z,11.27
2023-01-05T09:28:49.830Z,7.23
2023-01-05T09:31:20.065Z,9.07
2023-01-05T09:33:48.689Z,13.63
2023-01-05T09:36:18.317Z,11.03
2023-01-05T09:38:50.654Z,8.03
2023-01-05T09:41:26.041Z,10.83
2023-01-05T09:43:57.941Z,11.90
2023-01-05T09:46:37.600Z,8.27
2023-01-05T09:49:06.882Z,10.47
2023-01-05T09:51:35.937Z,17.90
2023-01-05T09:54:03.750Z,12.37
2023-01-05T09:57:08.495Z,11.60
2023-01-05T09:59:35.987Z,13.73
2023-01-05T10:02:14.536Z,13.47
2023-01-05T10:04:43.057Z,12.30
2023-01-05T10:07:26.911Z,12.60
2023-01-05T10:10:00.322Z,12.93
2023-01-05T10:13:02.536Z,13.43
2023-01-05T10:15:38.798Z,15.87
2023-01-05T10:18:18.578Z,11.23
2023-01-05T10:20:53.142Z,11.33
2023-01-05T10:23:23.598Z,14.13
2023-01-05T10:26:04.336Z,9.67
2023-01-05T10:28:37.085Z,13.87
2023-01-05T10:31:44.075Z,14.97
2023-01-05T10:34:50.051Z,14.50
2023-01-05T10:37:32.684Z,14.23
2023-01-05T10:40:28.231Z,20.77
2023-01-05T10:43:05.255Z,13.50
2023-01-05T10:45:32.950Z,15.57
2023-01-05T10:48:05.511Z,16.13
2023-01-05T10:50:38.010Z,19.60
2023-01-05T10:53:18.388Z,18.17
2023-01-05T10:56:05.873Z,15.47
2023-01-05T10:58:43.828Z,14.37
2023-01-05T11:01:31.015Z,14.53
2023-01-05T11:04:29.316Z,14.13
2023-01-05T11:07:06.510Z,15.40
2023-01-05T11:09:40.597Z,13.00
2023-01-05T11:12:19.131Z,14.43
2023-01-05T11:14:58.327Z,13.40
2023-01-05T11:17:28.386Z,11.07
2023-01-05T11:19:59.134Z,13.10
2023-01-05T11:22:35.231Z,11.83
2023-01-05T11:25:26.993Z,14.37
2023-01-05T11:28:15.849Z,11.57
2023-01-05T11:31:03.326Z,12.00
2023-01-05T11:33:34.780Z,15.27
2023-01-05T11:36:05.327Z,14.93
2023-01-05T11:38:33.798Z,13.17
2023-01-05T11:41:01.889Z,12.37
2023-01-05T11:43:34.348Z,12.33
2023-01-05T11:46:05.773Z,12.83
2023-01-05T11:48:35.644Z,14.57
2023-01-05T11:51:03.627Z,11.53
2023-01-05T11:53:34.372Z,12.20
2023-01-05T11:56:08.037Z,11.13
2023-01-05T11:58:44.434Z,9.63
2023-01-05T12:01:15.316Z,12.13
2023-01-05T12:03:52.831Z,14.00
2023-01-05T12:06:48.321Z,11.73
2023-01-05T12:09:34.655Z,11.03
2023-01-05T12:12:21.858Z,12.30
2023-01-05T12:14:55.281Z,14.07
2023-01-05T12:17:48.933Z,13.70
2023-01-05T12:20:19.601Z,13.63
2023-01-05T12:23:29.300Z,10.63
2023-01-05T12:25:56.930Z,11.43
2023-01-05T12:28:48.386Z,12.87
2023-01-05T12:34:33.269Z,9.63
2023-01-05T12:37:22.508Z,11.27
2023-01-05T12:40:08.199Z,9.53
2023-01-05T12:42:49.259Z,14.13
2023-01-05T12:45:54.667Z,12.60
2023-01-05T12:48:25.394Z,11.97
2023-01-05T12:51:12.183Z,12.50
2023-01-05T12:53:48.676Z,12.07
2023-01-05T12:56:38.429Z,11.97
2023-01-05T12:59:25.008Z,10.73
2023-01-05T13:02:09.722Z,15.00
2023-01-05T13:04:48.428Z,11.83
2023-01-05T13:07:25.296Z,13.50
2023-01-05T13:10:03.365Z,14.00
2023-01-05T13:12:33.975Z,9.17
2023-01-05T13:15:11.372Z,12.17
2023-01-05T13:17:44.491Z,10.70
2023-01-05T13:20:34.072Z,14.60
2023-01-05T13:23:13.111Z,11.60
2023-01-05T13:26:02.265Z,14.40
2023-01-05T13:28:35.233Z,12.63
2023-01-05T13:31:38.218Z,13.20
2023-01-05T13:34:38.047Z,12.37
2023-01-05T13:37:11.833Z,14.57
2023-01-05T13:40:05.840Z,11.30
2023-01-05T13:42:43.409Z,11.83
2023-01-05T13:45:29.656Z,14.90
2023-01-05T13:48:44.453Z,11.90
2023-01-05T13:51:38.534Z,16.27
2023-01-05T13:54:14.712Z,14.17
2023-01-05T13:56:42.691Z,16.87
2023-01-05T13:59:29.050Z,15.03
2023-01-05T14:02:27.442Z,11.67
2023-01-05T14:04:55.695Z,12.37
2023-01-05T14:07:24.069Z,15.17
2023-01-05T14:09:57.116Z,15.60
2023-01-05T14:12:40.502Z,12.57
2023-01-05T14:15:14.180Z,27.60
2023-01-05T14:17:57.905Z,13.10
2023-01-05T14:20:36.955Z,12.80
2023-01-05T14:23:25.339Z,16.03
2023-01-05T14:26:01.410Z,20.40
2023-01-05T14:28:29.069Z,11.73
2023-01-05T14:31:16.301Z,11.90
2023-01-05T14:33:53.388Z,16.67
2023-01-05T14:36:35.245Z,9.37
2023-01-05T14:39:19.007Z,14.80
2023-01-05T14:42:05.396Z,11.77
2023-01-05T14:44:48.356Z,15.20
2023-01-05T14:47:58.736Z,12.97
2023-01-05T14:50:29.322Z,14.30
2023-01-05T14:53:00.323Z,11.00
2023-01-05T14:55:40.402Z,16.97
2023-01-05T14:58:36.294Z,13.10
2023-01-05T15:01:19.054Z,11.97
2023-01-05T15:04:11.468Z,14.43
2023-01-05T15:06:56.892Z,12.97
2023-01-05T15:09:58.975Z,14.77
2023-01-05T15:12:45.552Z,12.30
2023-01-05T15:15:24.977Z,16.40
2023-01-05T15:18:14.727Z,12.37
2023-01-05T15:20:46.197Z,11.30
2023-01-05T15:23:35.558Z,16.93
2023-01-05T15:26:29.058Z,16.70
2023-01-05T15:29:11.616Z,14.07
2023-01-05T15:31:41.082Z,14.33
2023-01-05T15:34:37.596Z,16.87
2023-01-05T15:37:11.205Z,15.30
2023-01-05T15:39:49.093Z,12.17
2023-01-05T15:42:33.559Z,13.87
2023-01-05T15:45:01.317Z,13.33
2023-01-05T15:47:30.186Z,18.07
2023-01-05T15:50:00.430Z,15.37
2023-01-05T15:52:37.912Z,17.77
2023-01-05T15:55:19.173Z,17.37
2023-01-05T15:58:03.787Z,14.30
2023-01-05T16:00:34.286Z,13.63
2023-01-05T16:03:18.113Z,14.07
2023-01-05T16:05:46.402Z,18.33
2023-01-05T16:08:16.628Z,17.57
2023-01-05T16:11:03.084Z,20.07
2023-01-05T16:13:42.739Z,13.13
2023-01-05T16:16:51.809Z,19.23
2023-01-05T16:19:39.511Z,15.07
2023-01-05T16:22:17.285Z,17.00
2023-01-05T16:24:47.775Z,14.20
2023-01-05T16:27:16.575Z,21.60
2023-01-05T16:29:47.060Z,15.47
2023-01-05T16:32:38.718Z,14.30
2023-01-05T16:35:39.034Z,15.20
2023-01-05T16:38:09.713Z,16.50
2023-01-05T16:41:00.766Z,15.10
2023-01-05T16:43:42.080Z,26.10
2023-01-05T16:46:25.512Z,14.47
2023-01-05T16:48:58.761Z,19.47
2023-01-05T16:51:32.365Z,14.03
2023-01-05T16:54:26.284Z,15.03
2023-01-05T16:57:02.269Z,41.10
2023-01-05T16:59:47.482Z,41.43
2023-01-05T17:02:42.403Z,23.97
2023-01-05T17:05:11.708Z,18.70
2023-01-05T17:07:43.280Z,19.30
2023-01-05T17:10:31.563Z,17.57
2023-01-05T17:13:06.199Z,24.53
2023-01-05T17:15:36.207Z,19.70
2023-01-05T17:20:51.278Z,17.93
2023-01-05T17:23:30.076Z,17.87
2023-01-05T17:26:09.853Z,15.80
2023-01-05T17:28:39.239Z,13.00
2023-01-05T17:31:07.647Z,16.10
2023-01-05T17:33:35.511Z,17.37
2023-01-05T17:36:03.943Z,16.77
2023-01-05T17:38:31.706Z,14.20
2023-01-05T17:40:59.448Z,12.20
2023-01-05T17:43:27.119Z,13.93
2023-01-05T17:45:55.105Z,14.87
2023-01-05T17:48:22.795Z,15.23
2023-01-05T17:50:52.942Z,15.07
2023-01-05T17:53:24.702Z,10.23
2023-01-05T17:55:52.287Z,12.37
2023-01-05T17:58:19.941Z,11.20
2023-01-05T18:00:49.812Z,13.00
2023-01-05T18:03:22.253Z,13.97
2023-01-05T18:05:52.554Z,11.90
2023-01-05T18:08:21.592Z,11.57
2023-01-05T18:10:49.277Z,14.27
2023-01-05T18:13:19.843Z,16.03
2023-01-05T18:15:52.648Z,14.20
2023-01-05T18:18:21.504Z,13.67
2023-01-05T18:20:51.559Z,11.47
2023-01-05T18:23:20.483Z,10.43
2023-01-05T18:25:48.541Z,12.13
2023-01-05T18:28:16.913Z,12.97
2023-01-05T18:30:44.995Z,13.13
2023-01-05T18:35:45.161Z,19.77
2023-01-05T18:38:12.972Z,13.57
2023-01-05T18:40:40.712Z,7.87
2023-01-05T18:43:08.396Z,14.30
2023-01-05T18:45:39.465Z,10.10
2023-01-05T18:48:08.007Z,13.33
2023-01-05T18:50:43.097Z,9.67
2023-01-05T18:53:11.686Z,8.70
2023-01-05T18:55:43.087Z,14.47
2023-01-05T18:58:14.327Z,7.83
2023-01-05T19:00:44.856Z,9.60
2023-01-05T19:03:12.927Z,6.80
2023-01-05T19:05:42.530Z,8.13
2023-01-05T19:08:12.011Z,11.10
2023-01-05T19:10:40.461Z,6.63
2023-01-05T19:13:08.342Z,9.27
2023-01-05T19:15:37.144Z,9.07
2023-01-05T19:18:05.662Z,9.63
2023-01-05T19:20:33.388Z,10.27
2023-01-05T19:23:01.204Z,6.90
2023-01-05T19:25:29.907Z,9.60
2023-01-05T19:28:01.445Z,12.07
2023-01-05T19:30:30.838Z,8.57
2023-01-05T19:32:58.452Z,9.30
2023-01-05T19:35:28.344Z,8.77
2023-01-05T19:37:57.109Z,9.43
2023-01-05T19:40:24.926Z,10.57
2023-01-05T19:42:53.351Z,12.03
2023-01-05T19:45:21.291Z,8.60
2023-01-05T19:47:49.003Z,10.03
2023-01-05T19:50:16.861Z,12.07
2023-01-05T19:52:44.661Z,7.33
2023-01-05T19:55:12.645Z,8.07
2023-01-05T19:57:40.508Z,9.70
2023-01-05T20:00:08.932Z,8.20
2023-01-05T20:02:36.579Z,10.10
2023-01-05T20:05:04.838Z,9.10
2023-01-05T20:07:32.513Z,8.90
2023-01-05T20:10:00.294Z,9.03
2023-01-05T20:12:28.448Z,10.47
2023-01-05T20:14:57.589Z,8.37
2023-01-05T20:17:25.432Z,9.37
2023-01-05T20:19:53.743Z,9.33
2023-01-05T20:22:24.185Z,8.20
2023-01-05T20:24:51.963Z,7.57
2023-01-05T20:27:19.836Z,10.23
2023-01-05T20:29:47.832Z,9.10
2023-01-05T20:32:23.473Z,10.17
2023-01-05T20:34:54.514Z,9.33
2023-01-05T20:37:23.922Z,9.70
2023-01-05T20:39:51.953Z,7.90
2023-01-05T20:42:19.792Z,9.53
2023-01-05T20:44:48.339Z,10.90
2023-01-05T20:47:16.530Z,8.23
2023-01-05T20:49:48.029Z,9.73
2023-01-05T20:52:17.857Z,9.07
2023-01-05T20:54:45.766Z,11.53
2023-01-05T20:57:16.794Z,7.10
2023-01-05T20:59:45.604Z,9.27
2023-01-05T21:02:23.653Z,5.83
2023-01-05T21:04:55.134Z,9.77
2023-01-05T21:07:23.529Z,9.03
2023-01-05T21:09:55.027Z,7.13
2023-01-05T21:12:38.775Z,6.30
2023-01-05T21:15:09.737Z,5.27
2023-01-05T21:17:37.703Z,8.37
2023-01-05T21:20:06.437Z,6.07
2023-01-05T21:22:35.127Z,5.33
2023-01-05T21:25:02.724Z,6.87
2023-01-05T21:27:30.389Z,4.90
2023-01-05T21:29:58.060Z,4.90
2023-01-05T21:32:25.719Z,6.67
2023-01-05T21:34:53.367Z,5.87
2023-01-05T21:37:20.994Z,5.80
2023-01-05T21:39:48.580Z,6.27
2023-01-05T21:42:34.738Z,6.73
2023-01-05T21:45:02.628Z,6.67
2023-01-05T21:47:30.285Z,7.90
2023-01-05T21:49:57.919Z,6.40
2023-01-05T21:52:44.219Z,10.07
2023-01-05T21:55:30.705Z,6.53
2023-01-05T21:57:59.426Z,6.97
2023-01-05T22:00:27.523Z,7.70
2023-01-05T22:02:55.314Z,6.63
2023-01-05T22:05:22.951Z,8.03
2023-01-05T22:07:51.402Z,5.07
2023-01-05T22:10:19.131Z,8.70
2023-01-05T22:12:49.307Z,12.40
2023-01-05T22:15:17.279Z,6.63
2023-01-05T22:17:44.906Z,5.40
2023-01-05T22:20:13.903Z,5.43
2023-01-05T22:22:41.781Z,5.90
2023-01-05T22:25:09.973Z,5.53
2023-01-05T22:27:38.691Z,6.30
2023-01-05T22:30:07.072Z,8.70
2023-01-05T22:32:36.115Z,5.37
2023-01-05T22:35:04.736Z,9.03
2023-01-05T22:37:32.496Z,9.20
2023-01-05T22:40:00.244Z,4.97
2023-01-05T22:42:27.967Z,7.03
2023-01-05T22:44:58.274Z,6.13
2023-01-05T22:47:26.484Z,6.80
2023-01-05T22:49:54.139Z,8.67
2023-01-05T22:52:21.807Z,5.33
2023-01-05T22:54:49.459Z,8.63
2023-01-05T22:57:17.151Z,9.10
2023-01-05T22:59:44.989Z,8.00
2023-01-05T23:02:12.769Z,10.30
2023-01-05T23:04:40.536Z,8.87
2023-01-05T23:07:08.323Z,6.30
2023-01-05T23:09:36.024Z,8.40
2023-01-05T23:12:03.905Z,7.20
2023-01-05T23:14:31.671Z,5.00
2023-01-05T23:16:59.301Z,5.57
2023-01-05T23:19:26.936Z,5.27
2023-01-05T23:21:55.345Z,5.00
2023-01-05T23:24:23.382Z,8.47
2023-01-05T23:27:00.401Z,6.13
2023-01-05T23:29:28.855Z,4.47
2023-01-05T23:31:57.502Z,6.17
2023-01-05T23:34:25.135Z,6.43
2023-01-05T23:36:52.799Z,5.93
2023-01-05T23:39:22.600Z,6.50
2023-01-05T23:41:50.227Z,6.83
2023-01-05T23:44:17.838Z,5.50
2023-01-05T23:46:45.497Z,5.47
2023-01-05T23:49:15.793Z,6.77
2023-01-05T23:51:43.479Z,7.73
2023-01-05T23:54:11.132Z,5.50
2023-01-05T23:56:41.548Z,6.57
2023-01-05T23:59:09.624Z,5.40
